sensor_id;sensor_type;location;lat;lon;timestamp;P1;durP1;ratioP1;P2;durP2;ratioP2
39524;SDS011;25203;50.754;6.978;2022-08-21T00:00:20;9.85;;;4.47;;
39524;SDS011;25203;50.754;6.978;2022-08-21T00:02:24;10.23;;;4.18;;
39524;SDS011;25203;50.754;6.978;2022-08-21T00:04:25;13.43;;;4.47;;
39524;SDS011;25203;50.754;6.978;2022-08-21T00:06:26;6.53;;;3.78;;
39524;SDS011;25203;50.754;6.978;2022-08-21T00:08:26;9.52;;;4.38;;
39524;SDS011;25203;50.754;6.978;2022-08-21T00:10:27;7.38;;;4.20;;
39524;SDS011;25203;50.754;6.978;2022-08-21T00:12:28;14.18;;;5.00;;
39524;SDS011;25203;50.754;6.978;2022-08-21T00:14:28;11.20;;;5.28;;
39524;SDS011;25203;50.754;6.978;2022-08-21T00:16:29;7.15;;;4.60;;
39524;SDS011;25203;50.754;6.978;2022-08-21T00:18:30;14.25;;;4.90;;
39524;SDS011;25203;50.754;6.978;2022-08-21T00:20:31;7.35;;;4.25;;
39524;SDS011;25203;50.754;6.978;2022-08-21T00:22:33;5.38;;;3.83;;
39524;SDS011;25203;50.754;6.978;2022-08-21T00:24:34;9.02;;;4.55;;
39524;SDS011;25203;50.754;6.978;2022-08-21T00:26:34;9.00;;;4.72;;
39524;SDS011;25203;50.754;6.978;2022-08-21T00:28:35;11.52;;;5.13;;
39524;SDS011;25203;50.754;6.978;2022-08-21T00:30:36;11.80;;;5.40;;
39524;SDS011;25203;50.754;6.978;2022-08-21T00:32:37;12.48;;;5.55;;
39524;SDS011;25203;50.754;6.978;2022-08-21T00:34:39;9.48;;;4.95;;
39524;SDS011;25203;50.754;6.978;2022-08-21T00:36:40;12.90;;;5.82;;
39524;SDS011;25203;50.754;6.978;2022-08-21T00:38:40;11.20;;;5.07;;
39524;SDS011;25203;50.754;6.978;2022-08-21T00:40:43;10.45;;;4.97;;
39524;SDS011;25203;50.754;6.978;2022-08-21T00:42:48;9.93;;;4.07;;
39524;SDS011;25203;50.754;6.978;2022-08-21T00:44:49;4.93;;;3.75;;
39524;SDS011;25203;50.754;6.978;2022-08-21T00:46:51;7.07;;;4.57;;
39524;SDS011;25203;50.754;6.978;2022-08-21T00:48:52;10.90;;;5.00;;
39524;SDS011;25203;50.754;6.978;2022-08-21T00:51:36;7.57;;;4.47;;
39524;SDS011;25203;50.754;6.978;2022-08-21T00:53:22;8.65;;;4.40;;
39524;SDS011;25203;50.754;6.978;2022-08-21T00:55:23;7.28;;;4.53;;
39524;SDS011;25203;50.754;6.978;2022-08-21T00:59:56;7.45;;;4.07;;
39524;SDS011;25203;50.754;6.978;2022-08-21T01:02:00;10.73;;;4.80;;
39524;SDS011;25203;50.754;6.978;2022-08-21T01:04:01;10.63;;;4.97;;
39524;SDS011;25203;50.754;6.978;2022-08-21T01:06:02;12.75;;;5.22;;
39524;SDS011;25203;50.754;6.978;2022-08-21T01:08:04;8.75;;;5.30;;
39524;SDS011;25203;50.754;6.978;2022-08-21T01:10:06;8.00;;;4.80;;
39524;SDS011;25203;50.754;6.978;2022-08-21T01:12:08;11.80;;;5.35;;
39524;SDS011;25203;50.754;6.978;2022-08-21T01:14:10;14.82;;;5.38;;
39524;SDS011;25203;50.754;6.978;2022-08-21T01:16:13;15.50;;;5.53;;
39524;SDS011;25203;50.754;6.978;2022-08-21T01:18:17;7.47;;;5.18;;
39524;SDS011;25203;50.754;6.978;2022-08-21T01:20:19;8.90;;;5.43;;
39524;SDS011;25203;50.754;6.978;2022-08-21T01:22:20;8.82;;;5.63;;
39524;SDS011;25203;50.754;6.978;2022-08-21T01:24:21;10.02;;;5.97;;
39524;SDS011;25203;50.754;6.978;2022-08-21T01:26:30;15.68;;;5.70;;
39524;SDS011;25203;50.754;6.978;2022-08-21T01:28:33;9.98;;;5.32;;
39524;SDS011;25203;50.754;6.978;2022-08-21T01:30:38;8.52;;;5.30;;
39524;SDS011;25203;50.754;6.978;2022-08-21T01:32:41;10.85;;;5.55;;
39524;SDS011;25203;50.754;6.978;2022-08-21T01:34:44;6.22;;;4.78;;
39524;SDS011;25203;50.754;6.978;2022-08-21T01:36:46;10.20;;;5.55;;
39524;SDS011;25203;50.754;6.978;2022-08-21T01:38:48;8.45;;;5.47;;
39524;SDS011;25203;50.754;6.978;2022-08-21T01:40:49;7.13;;;5.13;;
39524;SDS011;25203;50.754;6.978;2022-08-21T01:42:49;11.68;;;6.20;;
39524;SDS011;25203;50.754;6.978;2022-08-21T01:44:51;9.65;;;5.47;;
39524;SDS011;25203;50.754;6.978;2022-08-21T01:46:51;13.10;;;5.85;;
39524;SDS011;25203;50.754;6.978;2022-08-21T01:48:55;9.93;;;5.90;;
39524;SDS011;25203;50.754;6.978;2022-08-21T01:50:55;13.68;;;6.75;;
39524;SDS011;25203;50.754;6.978;2022-08-21T01:52:56;11.60;;;6.00;;
39524;SDS011;25203;50.754;6.978;2022-08-21T01:54:57;14.15;;;6.30;;
39524;SDS011;25203;50.754;6.978;2022-08-21T01:56:58;7.97;;;5.63;;
39524;SDS011;25203;50.754;6.978;2022-08-21T01:58:59;13.63;;;5.90;;
39524;SDS011;25203;50.754;6.978;2022-08-21T02:01:00;8.98;;;5.55;;
39524;SDS011;25203;50.754;6.978;2022-08-21T02:03:02;12.73;;;5.65;;
39524;SDS011;25203;50.754;6.978;2022-08-21T02:05:03;10.98;;;5.00;;
39524;SDS011;25203;50.754;6.978;2022-08-21T02:07:04;15.10;;;5.68;;
39524;SDS011;25203;50.754;6.978;2022-08-21T02:09:06;8.57;;;5.15;;
39524;SDS011;25203;50.754;6.978;2022-08-21T02:11:08;7.88;;;5.13;;
39524;SDS011;25203;50.754;6.978;2022-08-21T02:13:09;9.52;;;4.88;;
39524;SDS011;25203;50.754;6.978;2022-08-21T02:15:09;7.93;;;4.65;;
39524;SDS011;25203;50.754;6.978;2022-08-21T02:17:10;7.68;;;4.47;;
39524;SDS011;25203;50.754;6.978;2022-08-21T02:19:12;8.57;;;4.60;;
39524;SDS011;25203;50.754;6.978;2022-08-21T02:21:14;11.05;;;4.63;;
39524;SDS011;25203;50.754;6.978;2022-08-21T02:23:15;6.60;;;4.18;;
39524;SDS011;25203;50.754;6.978;2022-08-21T02:25:17;7.75;;;5.03;;
39524;SDS011;25203;50.754;6.978;2022-08-21T02:27:19;8.32;;;4.95;;
39524;SDS011;25203;50.754;6.978;2022-08-21T02:29:19;8.38;;;4.43;;
39524;SDS011;25203;50.754;6.978;2022-08-21T02:31:20;11.75;;;5.70;;
39524;SDS011;25203;50.754;6.978;2022-08-21T02:33:21;10.32;;;5.65;;
39524;SDS011;25203;50.754;6.978;2022-08-21T02:35:22;9.93;;;5.63;;
39524;SDS011;25203;50.754;6.978;2022-08-21T02:37:23;7.90;;;4.85;;
39524;SDS011;25203;50.754;6.978;2022-08-21T02:39:24;9.20;;;4.93;;
39524;SDS011;25203;50.754;6.978;2022-08-21T02:41:25;9.00;;;4.95;;
39524;SDS011;25203;50.754;6.978;2022-08-21T02:43:26;9.40;;;5.70;;
39524;SDS011;25203;50.754;6.978;2022-08-21T02:45:27;7.07;;;4.80;;
39524;SDS011;25203;50.754;6.978;2022-08-21T02:47:28;13.55;;;4.75;;
39524;SDS011;25203;50.754;6.978;2022-08-21T02:49:29;7.00;;;5.30;;
39524;SDS011;25203;50.754;6.978;2022-08-21T02:51:29;10.07;;;5.35;;
39524;SDS011;25203;50.754;6.978;2022-08-21T02:53:31;8.50;;;6.45;;
39524;SDS011;25203;50.754;6.978;2022-08-21T02:55:33;9.23;;;5.97;;
39524;SDS011;25203;50.754;6.978;2022-08-21T02:57:35;9.50;;;5.95;;
39524;SDS011;25203;50.754;6.978;2022-08-21T02:59:35;8.88;;;5.60;;
39524;SDS011;25203;50.754;6.978;2022-08-21T03:01:36;13.02;;;5.20;;
39524;SDS011;25203;50.754;6.978;2022-08-21T03:03:38;10.40;;;5.72;;
39524;SDS011;25203;50.754;6.978;2022-08-21T03:05:41;9.77;;;5.93;;
39524;SDS011;25203;50.754;6.978;2022-08-21T03:07:43;13.07;;;6.72;;
39524;SDS011;25203;50.754;6.978;2022-08-21T03:09:46;8.18;;;5.20;;
39524;SDS011;25203;50.754;6.978;2022-08-21T03:11:47;12.93;;;5.85;;
39524;SDS011;25203;50.754;6.978;2022-08-21T03:13:47;11.75;;;6.80;;
39524;SDS011;25203;50.754;6.978;2022-08-21T03:15:48;16.50;;;7.50;;
39524;SDS011;25203;50.754;6.978;2022-08-21T03:17:49;9.73;;;6.65;;
39524;SDS011;25203;50.754;6.978;2022-08-21T03:19:50;10.63;;;6.20;;
39524;SDS011;25203;50.754;6.978;2022-08-21T03:21:51;9.95;;;6.80;;
39524;SDS011;25203;50.754;6.978;2022-08-21T03:23:52;9.02;;;6.70;;
39524;SDS011;25203;50.754;6.978;2022-08-21T03:25:54;6.80;;;5.72;;
39524;SDS011;25203;50.754;6.978;2022-08-21T03:27:54;11.80;;;6.22;;
39524;SDS011;25203;50.754;6.978;2022-08-21T03:29:55;13.50;;;7.00;;
39524;SDS011;25203;50.754;6.978;2022-08-21T03:31:55;11.32;;;7.20;;
39524;SDS011;25203;50.754;6.978;2022-08-21T03:33:56;20.23;;;7.53;;
39524;SDS011;25203;50.754;6.978;2022-08-21T03:36:02;13.98;;;7.75;;
39524;SDS011;25203;50.754;6.978;2022-08-21T03:38:05;12.38;;;7.97;;
39524;SDS011;25203;50.754;6.978;2022-08-21T03:40:07;16.63;;;7.53;;
39524;SDS011;25203;50.754;6.978;2022-08-21T03:42:09;17.10;;;8.20;;
39524;SDS011;25203;50.754;6.978;2022-08-21T03:44:10;13.88;;;8.57;;
39524;SDS011;25203;50.754;6.978;2022-08-21T03:46:11;10.40;;;7.55;;
39524;SDS011;25203;50.754;6.978;2022-08-21T03:48:12;10.70;;;8.15;;
39524;SDS011;25203;50.754;6.978;2022-08-21T03:50:12;15.15;;;9.00;;
39524;SDS011;25203;50.754;6.978;2022-08-21T03:52:15;17.48;;;9.35;;
39524;SDS011;25203;50.754;6.978;2022-08-21T03:54:16;14.48;;;8.88;;
39524;SDS011;25203;50.754;6.978;2022-08-21T03:56:17;13.07;;;9.07;;
39524;SDS011;25203;50.754;6.978;2022-08-21T03:58:19;14.50;;;7.95;;
39524;SDS011;25203;50.754;6.978;2022-08-21T04:00:21;12.55;;;8.65;;
39524;SDS011;25203;50.754;6.978;2022-08-21T04:02:23;17.10;;;9.45;;
39524;SDS011;25203;50.754;6.978;2022-08-21T04:04:23;13.48;;;8.50;;
39524;SDS011;25203;50.754;6.978;2022-08-21T04:06:24;16.15;;;8.15;;
39524;SDS011;25203;50.754;6.978;2022-08-21T04:08:26;14.43;;;9.15;;
39524;SDS011;25203;50.754;6.978;2022-08-21T04:10:27;18.23;;;10.18;;
39524;SDS011;25203;50.754;6.978;2022-08-21T04:12:30;10.15;;;8.52;;
39524;SDS011;25203;50.754;6.978;2022-08-21T04:14:31;14.40;;;8.82;;
39524;SDS011;25203;50.754;6.978;2022-08-21T04:16:31;8.55;;;7.53;;
39524;SDS011;25203;50.754;6.978;2022-08-21T04:18:32;11.15;;;8.23;;
39524;SDS011;25203;50.754;6.978;2022-08-21T04:20:33;11.32;;;7.80;;
39524;SDS011;25203;50.754;6.978;2022-08-21T04:22:34;9.45;;;7.15;;
39524;SDS011;25203;50.754;6.978;2022-08-21T04:24:35;15.38;;;8.65;;
39524;SDS011;25203;50.754;6.978;2022-08-21T04:26:36;16.65;;;8.77;;
39524;SDS011;25203;50.754;6.978;2022-08-21T04:28:38;19.45;;;9.77;;
39524;SDS011;25203;50.754;6.978;2022-08-21T04:30:38;18.95;;;10.80;;
39524;SDS011;25203;50.754;6.978;2022-08-21T04:32:41;22.15;;;12.32;;
39524;SDS011;25203;50.754;6.978;2022-08-21T04:34:43;13.27;;;10.23;;
39524;SDS011;25203;50.754;6.978;2022-08-21T04:36:44;13.23;;;9.60;;
39524;SDS011;25203;50.754;6.978;2022-08-21T04:38:44;12.52;;;9.73;;
39524;SDS011;25203;50.754;6.978;2022-08-21T04:40:45;14.38;;;10.18;;
39524;SDS011;25203;50.754;6.978;2022-08-21T04:42:49;12.18;;;9.30;;
39524;SDS011;25203;50.754;6.978;2022-08-21T04:44:52;7.93;;;7.00;;
39524;SDS011;25203;50.754;6.978;2022-08-21T04:46:53;8.70;;;7.60;;
39524;SDS011;25203;50.754;6.978;2022-08-21T04:48:53;13.35;;;8.27;;
39524;SDS011;25203;50.754;6.978;2022-08-21T04:50:56;8.73;;;7.80;;
39524;SDS011;25203;50.754;6.978;2022-08-21T04:53:00;13.75;;;8.35;;
39524;SDS011;25203;50.754;6.978;2022-08-21T04:55:01;7.18;;;6.35;;
39524;SDS011;25203;50.754;6.978;2022-08-21T04:57:02;10.60;;;7.30;;
39524;SDS011;25203;50.754;6.978;2022-08-21T04:59:11;12.75;;;6.30;;
39524;SDS011;25203;50.754;6.978;2022-08-21T05:01:20;8.98;;;6.50;;
39524;SDS011;25203;50.754;6.978;2022-08-21T05:03:23;18.15;;;6.90;;
39524;SDS011;25203;50.754;6.978;2022-08-21T05:05:24;12.70;;;7.55;;
39524;SDS011;25203;50.754;6.978;2022-08-21T05:07:27;11.10;;;8.85;;
39524;SDS011;25203;50.754;6.978;2022-08-21T05:09:30;13.77;;;8.35;;
39524;SDS011;25203;50.754;6.978;2022-08-21T05:11:32;11.75;;;7.32;;
39524;SDS011;25203;50.754;6.978;2022-08-21T05:13:33;19.73;;;10.05;;
39524;SDS011;25203;50.754;6.978;2022-08-21T05:15:35;11.98;;;10.15;;
39524;SDS011;25203;50.754;6.978;2022-08-21T05:17:37;13.18;;;9.68;;
39524;SDS011;25203;50.754;6.978;2022-08-21T05:19:38;17.80;;;10.32;;
39524;SDS011;25203;50.754;6.978;2022-08-21T05:21:41;10.75;;;8.60;;
39524;SDS011;25203;50.754;6.978;2022-08-21T05:23:43;12.18;;;9.05;;
39524;SDS011;25203;50.754;6.978;2022-08-21T05:25:43;15.75;;;11.30;;
39524;SDS011;25203;50.754;6.978;2022-08-21T05:27:44;21.88;;;11.20;;
39524;SDS011;25203;50.754;6.978;2022-08-21T05:29:44;17.90;;;11.57;;
39524;SDS011;25203;50.754;6.978;2022-08-21T05:31:46;14.75;;;10.63;;
39524;SDS011;25203;50.754;6.978;2022-08-21T05:33:47;12.90;;;10.00;;
39524;SDS011;25203;50.754;6.978;2022-08-21T05:35:51;19.13;;;11.45;;
39524;SDS011;25203;50.754;6.978;2022-08-21T05:37:55;21.40;;;11.00;;
39524;SDS011;25203;50.754;6.978;2022-08-21T05:39:56;15.10;;;10.02;;
39524;SDS011;25203;50.754;6.978;2022-08-21T05:41:57;14.57;;;9.02;;
39524;SDS011;25203;50.754;6.978;2022-08-21T05:43:57;14.65;;;9.15;;
39524;SDS011;25203;50.754;6.978;2022-08-21T05:45:58;10.88;;;8.10;;
39524;SDS011;25203;50.754;6.978;2022-08-21T05:48:09;13.25;;;8.00;;
39524;SDS011;25203;50.754;6.978;2022-08-21T05:50:10;15.57;;;8.32;;
39524;SDS011;25203;50.754;6.978;2022-08-21T05:52:11;8.57;;;7.15;;
39524;SDS011;25203;50.754;6.978;2022-08-21T05:54:11;12.93;;;7.40;;
39524;SDS011;25203;50.754;6.978;2022-08-21T05:56:13;15.13;;;8.10;;
39524;SDS011;25203;50.754;6.978;2022-08-21T05:58:15;15.88;;;8.63;;
39524;SDS011;25203;50.754;6.978;2022-08-21T06:00:17;11.27;;;7.45;;
39524;SDS011;25203;50.754;6.978;2022-08-21T06:02:18;12.60;;;7.78;;
39524;SDS011;25203;50.754;6.978;2022-08-21T06:04:20;9.95;;;6.43;;
39524;SDS011;25203;50.754;6.978;2022-08-21T06:06:21;9.23;;;5.82;;
39524;SDS011;25203;50.754;6.978;2022-08-21T06:08:22;9.60;;;5.28;;
39524;SDS011;25203;50.754;6.978;2022-08-21T06:10:23;10.57;;;5.22;;
39524;SDS011;25203;50.754;6.978;2022-08-21T06:12:24;12.90;;;5.57;;
39524;SDS011;25203;50.754;6.978;2022-08-21T06:14:25;6.07;;;4.40;;
39524;SDS011;25203;50.754;6.978;2022-08-21T06:16:26;8.27;;;4.75;;
39524;SDS011;25203;50.754;6.978;2022-08-21T06:18:27;9.38;;;4.22;;
39524;SDS011;25203;50.754;6.978;2022-08-21T06:20:27;5.00;;;3.85;;
39524;SDS011;25203;50.754;6.978;2022-08-21T06:22:28;10.45;;;4.18;;
39524;SDS011;25203;50.754;6.978;2022-08-21T06:24:29;6.65;;;3.92;;
39524;SDS011;25203;50.754;6.978;2022-08-21T06:26:30;7.97;;;3.40;;
39524;SDS011;25203;50.754;6.978;2022-08-21T06:28:31;7.57;;;2.90;;
39524;SDS011;25203;50.754;6.978;2022-08-21T06:30:32;7.50;;;3.10;;
39524;SDS011;25203;50.754;6.978;2022-08-21T06:32:34;6.50;;;2.80;;
39524;SDS011;25203;50.754;6.978;2022-08-21T06:34:36;4.22;;;2.50;;
39524;SDS011;25203;50.754;6.978;2022-08-21T06:36:38;6.60;;;2.42;;
39524;SDS011;25203;50.754;6.978;2022-08-21T06:38:39;4.95;;;2.03;;
39524;SDS011;25203;50.754;6.978;2022-08-21T06:40:39;5.65;;;2.72;;
39524;SDS011;25203;50.754;6.978;2022-08-21T06:42:40;7.05;;;2.67;;
39524;SDS011;25203;50.754;6.978;2022-08-21T06:44:41;5.78;;;2.38;;
39524;SDS011;25203;50.754;6.978;2022-08-21T06:46:42;4.13;;;2.42;;
39524;SDS011;25203;50.754;6.978;2022-08-21T06:48:42;9.10;;;2.45;;
39524;SDS011;25203;50.754;6.978;2022-08-21T06:50:43;6.00;;;2.30;;
39524;SDS011;25203;50.754;6.978;2022-08-21T06:52:43;6.70;;;2.10;;
39524;SDS011;25203;50.754;6.978;2022-08-21T06:54:44;4.82;;;2.22;;
39524;SDS011;25203;50.754;6.978;2022-08-21T06:56:45;5.65;;;2.53;;
39524;SDS011;25203;50.754;6.978;2022-08-21T06:58:46;7.80;;;2.15;;
39524;SDS011;25203;50.754;6.978;2022-08-21T07:00:47;3.80;;;2.15;;
39524;SDS011;25203;50.754;6.978;2022-08-21T07:02:49;6.38;;;2.30;;
39524;SDS011;25203;50.754;6.978;2022-08-21T07:04:50;8.93;;;2.90;;
39524;SDS011;25203;50.754;6.978;2022-08-21T07:06:50;5.78;;;2.47;;
39524;SDS011;25203;50.754;6.978;2022-08-21T07:08:51;5.82;;;2.53;;
39524;SDS011;25203;50.754;6.978;2022-08-21T07:10:53;5.90;;;2.30;;
39524;SDS011;25203;50.754;6.978;2022-08-21T07:12:55;7.15;;;2.55;;
39524;SDS011;25203;50.754;6.978;2022-08-21T07:14:56;8.77;;;2.63;;
39524;SDS011;25203;50.754;6.978;2022-08-21T07:16:58;6.20;;;2.35;;
39524;SDS011;25203;50.754;6.978;2022-08-21T07:18:58;7.10;;;2.42;;
39524;SDS011;25203;50.754;6.978;2022-08-21T07:21:03;5.97;;;2.13;;
39524;SDS011;25203;50.754;6.978;2022-08-21T07:23:07;4.30;;;2.30;;
39524;SDS011;25203;50.754;6.978;2022-08-21T07:25:11;5.65;;;3.08;;
39524;SDS011;25203;50.754;6.978;2022-08-21T07:27:12;6.78;;;2.40;;
39524;SDS011;25203;50.754;6.978;2022-08-21T07:29:12;6.18;;;2.45;;
39524;SDS011;25203;50.754;6.978;2022-08-21T07:31:14;6.07;;;2.20;;
39524;SDS011;25203;50.754;6.978;2022-08-21T07:33:16;6.38;;;2.55;;
39524;SDS011;25203;50.754;6.978;2022-08-21T07:35:17;6.93;;;2.42;;
39524;SDS011;25203;50.754;6.978;2022-08-21T07:37:19;6.38;;;2.00;;
39524;SDS011;25203;50.754;6.978;2022-08-21T07:39:20;8.95;;;2.63;;
39524;SDS011;25203;50.754;6.978;2022-08-21T07:41:22;6.80;;;1.92;;
39524;SDS011;25203;50.754;6.978;2022-08-21T07:43:25;4.93;;;2.28;;
39524;SDS011;25203;50.754;6.978;2022-08-21T07:45:26;5.85;;;1.65;;
39524;SDS011;25203;50.754;6.978;2022-08-21T07:47:26;5.72;;;1.90;;
39524;SDS011;25203;50.754;6.978;2022-08-21T07:49:27;6.57;;;2.13;;
39524;SDS011;25203;50.754;6.978;2022-08-21T07:51:28;5.57;;;2.00;;
39524;SDS011;25203;50.754;6.978;2022-08-21T07:53:29;5.30;;;1.70;;
39524;SDS011;25203;50.754;6.978;2022-08-21T07:55:29;6.13;;;2.00;;
39524;SDS011;25203;50.754;6.978;2022-08-21T07:57:30;7.25;;;2.47;;
39524;SDS011;25203;50.754;6.978;2022-08-21T07:59:31;4.43;;;1.38;;
39524;SDS011;25203;50.754;6.978;2022-08-21T08:01:31;4.80;;;1.90;;
39524;SDS011;25203;50.754;6.978;2022-08-21T08:03:32;5.13;;;1.50;;
39524;SDS011;25203;50.754;6.978;2022-08-21T08:05:33;5.72;;;1.60;;
39524;SDS011;25203;50.754;6.978;2022-08-21T08:07:37;6.15;;;1.63;;
39524;SDS011;25203;50.754;6.978;2022-08-21T08:09:38;5.05;;;2.03;;
39524;SDS011;25203;50.754;6.978;2022-08-21T08:11:39;7.88;;;2.00;;
39524;SDS011;25203;50.754;6.978;2022-08-21T08:13:44;7.05;;;2.00;;
39524;SDS011;25203;50.754;6.978;2022-08-21T08:15:47;4.45;;;2.13;;
39524;SDS011;25203;50.754;6.978;2022-08-21T08:17:47;6.72;;;2.28;;
39524;SDS011;25203;50.754;6.978;2022-08-21T08:19:48;4.85;;;1.80;;
39524;SDS011;25203;50.754;6.978;2022-08-21T08:21:49;5.25;;;2.17;;
39524;SDS011;25203;50.754;6.978;2022-08-21T08:23:49;6.88;;;2.55;;
39524;SDS011;25203;50.754;6.978;2022-08-21T08:25:50;7.00;;;2.20;;
39524;SDS011;25203;50.754;6.978;2022-08-21T08:27:51;5.63;;;1.85;;
39524;SDS011;25203;50.754;6.978;2022-08-21T08:29:52;4.18;;;1.58;;
39524;SDS011;25203;50.754;6.978;2022-08-21T08:31:53;4.75;;;1.95;;
39524;SDS011;25203;50.754;6.978;2022-08-21T08:33:53;7.47;;;2.22;;
39524;SDS011;25203;50.754;6.978;2022-08-21T08:35:54;10.07;;;2.53;;
39524;SDS011;25203;50.754;6.978;2022-08-21T08:37:55;6.90;;;1.95;;
39524;SDS011;25203;50.754;6.978;2022-08-21T08:39:56;5.15;;;2.03;;
39524;SDS011;25203;50.754;6.978;2022-08-21T08:41:59;6.28;;;2.00;;
39524;SDS011;25203;50.754;6.978;2022-08-21T08:44:05;5.95;;;1.85;;
39524;SDS011;25203;50.754;6.978;2022-08-21T08:46:11;3.90;;;1.75;;
39524;SDS011;25203;50.754;6.978;2022-08-21T08:48:20;5.18;;;2.38;;
39524;SDS011;25203;50.754;6.978;2022-08-21T08:50:55;5.15;;;1.80;;
39524;SDS011;25203;50.754;6.978;2022-08-21T08:55:04;8.00;;;1.92;;
39524;SDS011;25203;50.754;6.978;2022-08-21T08:57:17;4.97;;;1.83;;
39524;SDS011;25203;50.754;6.978;2022-08-21T08:59:25;8.35;;;1.98;;
39524;SDS011;25203;50.754;6.978;2022-08-21T09:01:28;6.57;;;1.90;;
39524;SDS011;25203;50.754;6.978;2022-08-21T09:03:28;6.45;;;2.20;;
39524;SDS011;25203;50.754;6.978;2022-08-21T09:05:38;7.25;;;1.77;;
39524;SDS011;25203;50.754;6.978;2022-08-21T09:12:12;4.45;;;2.08;;
39524;SDS011;25203;50.754;6.978;2022-08-21T09:19:27;9.23;;;1.95;;
39524;SDS011;25203;50.754;6.978;2022-08-21T09:27:09;4.78;;;1.75;;
39524;SDS011;25203;50.754;6.978;2022-08-21T09:29:11;4.47;;;1.90;;
39524;SDS011;25203;50.754;6.978;2022-08-21T09:33:28;6.57;;;2.20;;
39524;SDS011;25203;50.754;6.978;2022-08-21T09:35:29;3.70;;;1.60;;
39524;SDS011;25203;50.754;6.978;2022-08-21T09:37:31;4.68;;;1.95;;
39524;SDS011;25203;50.754;6.978;2022-08-21T09:39:38;5.18;;;1.98;;
39524;SDS011;25203;50.754;6.978;2022-08-21T09:41:39;9.48;;;2.70;;
39524;SDS011;25203;50.754;6.978;2022-08-21T09:43:40;7.97;;;2.13;;
39524;SDS011;25203;50.754;6.978;2022-08-21T09:46:28;6.63;;;2.05;;
39524;SDS011;25203;50.754;6.978;2022-08-21T09:48:24;5.25;;;1.88;;
39524;SDS011;25203;50.754;6.978;2022-08-21T09:50:26;6.90;;;1.80;;
39524;SDS011;25203;50.754;6.978;2022-08-21T09:52:28;5.90;;;2.58;;
39524;SDS011;25203;50.754;6.978;2022-08-21T09:54:30;7.70;;;2.35;;
39524;SDS011;25203;50.754;6.978;2022-08-21T09:56:37;3.30;;;1.65;;
39524;SDS011;25203;50.754;6.978;2022-08-21T09:58:59;4.78;;;1.80;;
39524;SDS011;25203;50.754;6.978;2022-08-21T10:01:02;7.20;;;1.88;;
39524;SDS011;25203;50.754;6.978;2022-08-21T10:03:12;3.55;;;1.80;;
39524;SDS011;25203;50.754;6.978;2022-08-21T10:05:25;6.85;;;2.22;;
39524;SDS011;25203;50.754;6.978;2022-08-21T10:07:28;4.85;;;1.70;;
39524;SDS011;25203;50.754;6.978;2022-08-21T10:09:31;5.35;;;1.98;;
39524;SDS011;25203;50.754;6.978;2022-08-21T10:11:33;5.63;;;1.90;;
39524;SDS011;25203;50.754;6.978;2022-08-21T10:18:20;6.10;;;1.95;;
39524;SDS011;25203;50.754;6.978;2022-08-21T10:20:28;4.40;;;1.42;;
39524;SDS011;25203;50.754;6.978;2022-08-21T10:22:38;4.03;;;1.50;;
39524;SDS011;25203;50.754;6.978;2022-08-21T10:29:56;5.05;;;1.77;;
39524;SDS011;25203;50.754;6.978;2022-08-21T10:34:16;6.50;;;1.55;;
39524;SDS011;25203;50.754;6.978;2022-08-21T10:39:19;6.30;;;2.17;;
39524;SDS011;25203;50.754;6.978;2022-08-21T10:43:51;3.42;;;1.60;;
39524;SDS011;25203;50.754;6.978;2022-08-21T10:48:22;4.80;;;1.80;;
39524;SDS011;25203;50.754;6.978;2022-08-21T10:50:39;4.38;;;1.42;;
39524;SDS011;25203;50.754;6.978;2022-08-21T10:55:22;6.22;;;1.90;;
39524;SDS011;25203;50.754;6.978;2022-08-21T10:57:50;4.15;;;1.73;;
39524;SDS011;25203;50.754;6.978;2022-08-21T11:00:00;4.65;;;1.60;;
39524;SDS011;25203;50.754;6.978;2022-08-21T11:02:15;4.70;;;1.50;;
39524;SDS011;25203;50.754;6.978;2022-08-21T11:04:26;4.10;;;1.50;;
39524;SDS011;25203;50.754;6.978;2022-08-21T11:06:37;4.30;;;1.52;;
39524;SDS011;25203;50.754;6.978;2022-08-21T11:08:43;4.03;;;1.48;;
39524;SDS011;25203;50.754;6.978;2022-08-21T11:10:57;4.35;;;1.70;;
39524;SDS011;25203;50.754;6.978;2022-08-21T11:13:05;3.95;;;1.77;;
39524;SDS011;25203;50.754;6.978;2022-08-21T11:17:24;6.13;;;1.58;;
39524;SDS011;25203;50.754;6.978;2022-08-21T11:20:38;3.05;;;1.25;;
39524;SDS011;25203;50.754;6.978;2022-08-21T11:22:21;7.43;;;1.88;;
39524;SDS011;25203;50.754;6.978;2022-08-21T11:24:38;3.80;;;1.33;;
39524;SDS011;25203;50.754;6.978;2022-08-21T11:29:20;3.97;;;1.38;;
39524;SDS011;25203;50.754;6.978;2022-08-21T11:31:39;3.00;;;1.50;;
39524;SDS011;25203;50.754;6.978;2022-08-21T11:34:11;2.22;;;1.13;;
39524;SDS011;25203;50.754;6.978;2022-08-21T11:36:51;3.20;;;1.40;;
39524;SDS011;25203;50.754;6.978;2022-08-21T11:39:05;4.10;;;1.60;;
39524;SDS011;25203;50.754;6.978;2022-08-21T11:41:25;3.05;;;1.30;;
39524;SDS011;25203;50.754;6.978;2022-08-21T11:43:41;3.22;;;1.50;;
39524;SDS011;25203;50.754;6.978;2022-08-21T11:45:47;3.35;;;1.20;;
39524;SDS011;25203;50.754;6.978;2022-08-21T11:50:30;7.03;;;1.42;;
39524;SDS011;25203;50.754;6.978;2022-08-21T11:52:33;2.75;;;1.42;;
39524;SDS011;25203;50.754;6.978;2022-08-21T11:56:55;4.70;;;1.45;;
39524;SDS011;25203;50.754;6.978;2022-08-21T11:59:04;3.85;;;1.40;;
39524;SDS011;25203;50.754;6.978;2022-08-21T12:01:12;5.53;;;1.42;;
39524;SDS011;25203;50.754;6.978;2022-08-21T12:03:29;4.00;;;1.63;;
39524;SDS011;25203;50.754;6.978;2022-08-21T12:05:38;4.22;;;1.70;;
39524;SDS011;25203;50.754;6.978;2022-08-21T12:07:42;3.75;;;1.48;;
39524;SDS011;25203;50.754;6.978;2022-08-21T12:10:04;3.60;;;1.10;;
39524;SDS011;25203;50.754;6.978;2022-08-21T12:14:34;7.13;;;1.60;;
39524;SDS011;25203;50.754;6.978;2022-08-21T12:16:44;3.20;;;1.55;;
39524;SDS011;25203;50.754;6.978;2022-08-21T12:18:46;4.72;;;1.67;;
39524;SDS011;25203;50.754;6.978;2022-08-21T12:21:01;2.40;;;1.20;;
39524;SDS011;25203;50.754;6.978;2022-08-21T12:25:16;3.10;;;1.38;;
39524;SDS011;25203;50.754;6.978;2022-08-21T12:29:29;2.42;;;1.10;;
39524;SDS011;25203;50.754;6.978;2022-08-21T12:31:47;3.28;;;1.40;;
39524;SDS011;25203;50.754;6.978;2022-08-21T12:33:58;3.03;;;1.30;;
39524;SDS011;25203;50.754;6.978;2022-08-21T12:36:23;6.22;;;1.80;;
39524;SDS011;25203;50.754;6.978;2022-08-21T12:38:32;4.20;;;1.63;;
39524;SDS011;25203;50.754;6.978;2022-08-21T12:42:57;9.27;;;2.42;;
39524;SDS011;25203;50.754;6.978;2022-08-21T12:45:02;4.90;;;1.40;;
39524;SDS011;25203;50.754;6.978;2022-08-21T12:47:11;2.42;;;1.50;;
39524;SDS011;25203;50.754;6.978;2022-08-21T12:49:30;5.07;;;1.63;;
39524;SDS011;25203;50.754;6.978;2022-08-21T12:51:48;7.15;;;1.38;;
39524;SDS011;25203;50.754;6.978;2022-08-21T12:53:55;3.50;;;1.55;;
39524;SDS011;25203;50.754;6.978;2022-08-21T12:55:57;4.03;;;1.20;;
39524;SDS011;25203;50.754;6.978;2022-08-21T12:58:04;3.75;;;1.40;;
39524;SDS011;25203;50.754;6.978;2022-08-21T13:00:06;3.95;;;1.50;;
39524;SDS011;25203;50.754;6.978;2022-08-21T13:02:16;4.07;;;1.60;;
39524;SDS011;25203;50.754;6.978;2022-08-21T13:06:42;4.68;;;1.35;;
39524;SDS011;25203;50.754;6.978;2022-08-21T13:08:46;4.80;;;1.85;;
39524;SDS011;25203;50.754;6.978;2022-08-21T13:10:49;4.00;;;1.70;;
39524;SDS011;25203;50.754;6.978;2022-08-21T13:13:06;2.63;;;1.20;;
39524;SDS011;25203;50.754;6.978;2022-08-21T13:15:12;5.68;;;1.52;;
39524;SDS011;25203;50.754;6.978;2022-08-21T13:17:16;4.38;;;1.38;;
39524;SDS011;25203;50.754;6.978;2022-08-21T13:19:19;2.47;;;1.30;;
39524;SDS011;25203;50.754;6.978;2022-08-21T13:21:20;4.05;;;1.20;;
39524;SDS011;25203;50.754;6.978;2022-08-21T13:23:25;4.88;;;1.60;;
39524;SDS011;25203;50.754;6.978;2022-08-21T13:25:29;3.70;;;1.60;;
39524;SDS011;25203;50.754;6.978;2022-08-21T13:27:34;5.30;;;1.60;;